Date,TemperatureHighF,TemperatureAvgF,TemperatureLowF,DewpointHighF,DewpointAvgF,DewpointLowF,HumidityHigh,HumidityAvg,HumidityLow,PressureMaxIn,PressureMinIn,WindSpeedMaxMPH,WindSpeedAvgMPH,GustSpeedMaxMPH,PrecipitationSumIn
2013-1-1,49.9,41.1,34.2,38.4,34.1,30.7,90,77,58,30.29,30.21,8,2,12,0.00
2013-1-2,54.4,42.4,33.5,38.6,34.2,28.4,90,74,52,30.26,30.15,4,1,7,0.00
2013-1-3,54.8,43.0,33.0,41.2,35.8,27.7,88,76,58,30.28,30.17,4,0,5,0.00
2013-1-4,55.6,44.4,35.6,39.9,36.6,32.9,92,76,48,30.30,30.19,4,1,6,0.00
2013-1-5,53.5,44.7,36.0,45.8,40.9,34.2,95,87,71,30.27,30.08,5,1,8,0.21
2013-1-6,46.8,43.1,37.9,44.4,41.7,36.7,97,95,90,30.20,30.07,4,1,7,0.16
2013-1-7,57.3,43.3,32.1,48.3,40.2,31.3,98,90,71,30.27,30.17,4,0,6,0.01
2013-1-8,60.5,47.4,39.3,47.0,42.5,38.3,97,84,58,30.25,30.14,5,1,6,0.01
2013-1-9,52.9,44.0,37.8,48.0,41.1,35.8,97,90,75,30.16,29.98,7,1,8,0.01
2013-1-10,53.1,43.3,37.4,37.4,33.7,30.1,81,70,45,30.19,30.07,7,1,12,0.00
2013-1-11,52.2,41.3,35.1,39.7,33.8,29.6,93,75,52,30.26,30.13,6,1,9,0.09
2013-1-12,49.7,40.6,34.1,35.1,28.1,24.1,94,63,38,30.26,30.14,4,1,7,0.00
2013-1-13,48.4,39.4,28.5,27.0,20.7,12.3,83,50,30,30.28,30.18,6,1,10,0.00
2013-1-14,49.3,40.7,35.0,22.4,16.8,10.3,57,38,29,30.41,30.22,7,2,12,0.00
2013-1-15,52.1,39.9,30.3,30.6,26.5,21.6,75,60,35,30.49,30.40,4,0,7,0.00
2013-1-16,54.7,42.9,33.9,35.3,32.2,28.7,83,67,44,30.45,30.27,3,1,10,0.00
2013-1-17,59.5,48.6,37.4,37.3,33.7,31.4,79,58,36,30.28,30.17,6,1,11,0.00
2013-1-18,62.8,49.3,38.7,39.5,34.6,31.9,81,59,33,30.24,30.14,5,1,11,0.00
2013-1-19,60.5,48.4,36.3,41.0,35.3,29.0,77,61,44,30.26,30.17,4,1,11,0.00
2013-1-20,60.2,44.3,36.1,38.9,32.9,28.2,79,65,36,30.24,30.17,2,0,5,0.00
2013-1-21,60.8,48.0,36.5,41.7,36.5,28.7,83,65,42,30.19,30.10,4,1,9,0.00
2013-1-22,64.3,51.2,40.2,44.6,40.3,34.4,84,68,45,30.13,30.02,3,0,6,0.00
2013-1-23,52.1,48.6,44.9,48.2,44.6,41.5,93,86,78,30.10,29.96,2,0,5,0.06
2013-1-24,52.6,50.5,47.8,50.4,48.7,46.2,96,94,89,30.19,30.07,6,2,14,0.20
2013-1-25,67.3,55.8,50.0,57.7,53.0,48.9,97,90,70,30.19,30.04,4,1,5,0.02
2013-1-26,59.3,50.0,44.7,50.8,44.8,39.5,97,84,51,30.07,29.98,11,2,14,0.01
2013-1-27,57.9,46.3,39.9,40.5,37.2,28.4,88,72,34,30.17,30.06,8,2,9,0.00
2013-1-28,58.5,47.0,38.8,42.5,38.5,34.4,90,73,41,30.29,30.16,7,2,10,0.00
2013-1-29,58.9,48.4,41.5,45.3,41.9,38.6,92,79,58,30.35,30.26,7,2,8,0.00
2013-1-30,66.2,55.9,46.2,42.5,37.9,31.9,77,52,38,30.34,30.25,8,3,10,0.00
2013-1-31,64.0,50.3,38.8,46.9,40.6,33.3,88,70,52,30.30,30.18,4,1,8,0.00